createdAt,value
2022-12-27T00:00:06.426Z,100225.80
2022-12-27T00:03:07.845Z,100221.00
2022-12-27T00:05:45.379Z,100215.00
2022-12-27T00:08:23.205Z,100210.20
2022-12-27T00:10:57.814Z,100219.60
2022-12-27T00:13:32.097Z,100222.00
2022-12-27T00:16:12.117Z,100233.20
2022-12-27T00:18:47.485Z,100240.80
2022-12-27T00:21:23.816Z,100253.80
2022-12-27T00:23:59.341Z,100258.40
2022-12-27T00:26:36.403Z,100248.00
2022-12-27T00:29:11.612Z,100247.80
2022-12-27T00:31:45.925Z,100252.80
2022-12-27T00:34:20.075Z,100257.20
2022-12-27T00:36:54.037Z,100258.00
2022-12-27T00:39:28.100Z,100263.60
2022-12-27T00:42:01.997Z,100266.40
2022-12-27T00:44:35.929Z,100272.60
2022-12-27T00:47:10.229Z,100281.20
2022-12-27T00:49:44.167Z,100283.80
2022-12-27T00:52:18.069Z,100284.20
2022-12-27T00:54:52.066Z,100296.00
2022-12-27T00:57:26.055Z,100296.60
2022-12-27T01:00:04.714Z,100296.00
2022-12-27T01:02:42.048Z,100301.40
2022-12-27T01:05:16.036Z,100310.80
2022-12-27T01:07:50.445Z,100312.20
2022-12-27T01:10:24.449Z,100312.80
2022-12-27T01:12:58.889Z,100328.80
2022-12-27T01:15:33.014Z,100329.40
2022-12-27T01:18:07.142Z,100328.20
2022-12-27T01:20:41.949Z,100330.60
2022-12-27T01:23:15.867Z,100330.40
2022-12-27T01:25:49.937Z,100335.20
2022-12-27T01:28:24.256Z,100336.00
2022-12-27T01:30:58.371Z,100336.60
2022-12-27T01:33:32.175Z,100336.80
2022-12-27T01:36:16.040Z,100350.20
2022-12-27T01:38:50.811Z,100353.00
2022-12-27T01:41:45.027Z,100359.80
2022-12-27T01:44:57.245Z,100365.00
2022-12-27T01:47:41.735Z,100367.80
2022-12-27T01:50:26.057Z,100373.20
2022-12-27T01:53:09.774Z,100372.00
2022-12-27T01:55:50.160Z,100380.60
2022-12-27T01:58:35.630Z,100387.20
2022-12-27T02:01:15.651Z,100385.80
2022-12-27T02:03:54.013Z,100389.40
2022-12-27T02:06:29.438Z,100392.80
2022-12-27T02:09:11.995Z,100392.40
2022-12-27T02:11:53.911Z,100399.20
2022-12-27T02:14:35.430Z,100405.20
2022-12-27T02:17:14.963Z,100411.60
2022-12-27T02:20:07.513Z,100424.00
2022-12-27T02:23:27.110Z,100436.00
2022-12-27T02:26:49.612Z,100449.20
2022-12-27T02:29:51.901Z,100467.60
2022-12-27T02:32:32.488Z,100476.40
2022-12-27T02:35:17.028Z,100490.80
2022-12-27T02:37:56.991Z,100498.80
2022-12-27T02:40:50.232Z,100513.00
2022-12-27T02:43:41.980Z,100522.80
2022-12-27T02:46:38.388Z,100522.80
2022-12-27T02:49:48.154Z,100526.20
2022-12-27T02:52:59.025Z,100535.40
2022-12-27T02:56:05.043Z,100522.00
2022-12-27T02:58:57.462Z,100519.80
2022-12-27T03:02:07.769Z,100530.00
2022-12-27T03:05:15.196Z,100540.80
2022-12-27T03:07:59.949Z,100539.80
2022-12-27T03:11:00.382Z,100544.00
2022-12-27T03:14:01.917Z,100550.20
2022-12-27T03:16:56.189Z,100547.00
2022-12-27T03:19:57.229Z,100556.20
2022-12-27T03:22:52.077Z,100556.60
2022-12-27T03:25:31.247Z,100560.80
2022-12-27T03:28:29.186Z,100558.00
2022-12-27T03:31:27.864Z,100561.60
2022-12-27T03:34:22.561Z,100565.40
2022-12-27T03:37:17.169Z,100579.80
2022-12-27T03:40:03.408Z,100583.80
2022-12-27T03:43:00.191Z,100602.40
2022-12-27T03:46:06.094Z,100617.20
2022-12-27T03:49:07.016Z,100621.60
2022-12-27T03:51:48.480Z,100624.80
2022-12-27T03:54:27.411Z,100622.60
2022-12-27T03:57:06.846Z,100628.40
2022-12-27T03:59:41.387Z,100629.20
2022-12-27T04:02:15.966Z,100634.80
2022-12-27T04:04:50.825Z,100645.40
2022-12-27T04:07:24.707Z,100648.00
2022-12-27T04:10:16.160Z,100653.60
2022-12-27T04:13:08.161Z,100661.40
2022-12-27T04:15:59.522Z,100662.80
2022-12-27T04:18:50.953Z,100663.00
2022-12-27T04:21:42.542Z,100672.60
2022-12-27T04:24:34.183Z,100678.60
2022-12-27T04:27:25.924Z,100689.80
2022-12-27T04:30:17.605Z,100694.40
2022-12-27T04:33:09.457Z,100702.00
2022-12-27T04:35:43.287Z,100710.80
2022-12-27T04:38:17.217Z,100706.00
2022-12-27T04:41:08.795Z,100712.60
2022-12-27T04:43:59.463Z,100718.60
2022-12-27T04:46:51.044Z,100723.20
2022-12-27T04:49:46.241Z,100724.40
2022-12-27T04:52:41.189Z,100732.40
2022-12-27T04:55:24.233Z,100742.60
2022-12-27T04:57:59.844Z,100750.20
2022-12-27T05:00:54.089Z,100758.20
2022-12-27T05:03:28.759Z,100761.60
2022-12-27T05:06:03.687Z,100763.00
2022-12-27T05:08:55.447Z,100776.60
2022-12-27T05:11:48.027Z,100772.40
2022-12-27T05:14:22.343Z,100775.00
2022-12-27T05:16:56.132Z,100775.20
2022-12-27T05:19:30.151Z,100782.20
2022-12-27T05:22:21.537Z,100787.40
2022-12-27T05:25:12.988Z,100795.00
2022-12-27T05:27:47.027Z,100801.60
2022-12-27T05:30:22.323Z,100801.20
2022-12-27T05:32:58.577Z,100805.60
2022-12-27T05:35:34.611Z,100812.20
2022-12-27T05:38:08.800Z,100813.40
2022-12-27T05:40:42.523Z,100812.60
2022-12-27T05:43:16.395Z,100818.20
2022-12-27T05:45:50.137Z,100822.40
2022-12-27T05:48:24.722Z,100834.80
2022-12-27T05:50:58.702Z,100838.40
2022-12-27T05:53:32.632Z,100837.20
2022-12-27T05:56:07.062Z,100845.00
2022-12-27T05:58:40.844Z,100844.80
2022-12-27T06:01:18.039Z,100836.40
2022-12-27T06:03:51.721Z,100846.00
2022-12-27T06:06:25.719Z,100858.40
2022-12-27T06:09:00.437Z,100856.20
2022-12-27T06:11:34.601Z,100859.40
2022-12-27T06:14:08.583Z,100856.20
2022-12-27T06:16:42.339Z,100856.60
2022-12-27T06:19:16.409Z,100863.60
2022-12-27T06:21:50.243Z,100867.20
2022-12-27T06:24:24.359Z,100864.80
2022-12-27T06:26:58.403Z,100869.00
2022-12-27T06:29:32.254Z,100881.00
2022-12-27T06:32:06.729Z,100881.00
2022-12-27T06:34:41.091Z,100885.00
2022-12-27T06:37:14.740Z,100889.00
2022-12-27T06:39:49.223Z,100887.60
2022-12-27T06:42:23.339Z,100883.00
2022-12-27T06:44:57.601Z,100893.40
2022-12-27T06:47:31.610Z,100891.00
2022-12-27T06:50:05.937Z,100896.40
2022-12-27T06:52:40.243Z,100896.20
2022-12-27T06:55:15.377Z,100898.00
2022-12-27T06:57:49.996Z,100902.60
2022-12-27T07:00:24.373Z,100905.80
2022-12-27T07:02:58.532Z,100913.00
2022-12-27T07:05:32.632Z,100917.80
2022-12-27T07:08:07.234Z,100920.00
2022-12-27T07:10:42.063Z,100924.40
2022-12-27T07:13:16.085Z,100935.60
2022-12-27T07:15:49.880Z,100938.20
2022-12-27T07:18:24.025Z,100938.60
2022-12-27T07:20:57.994Z,100944.00
2022-12-27T07:23:31.800Z,100945.60
2022-12-27T07:26:10.117Z,100944.60
2022-12-27T07:28:45.071Z,100951.20
2022-12-27T07:31:23.074Z,100949.60
2022-12-27T07:33:58.198Z,100955.80
2022-12-27T07:36:37.430Z,100958.60
2022-12-27T07:39:12.253Z,100960.80
2022-12-27T07:41:46.086Z,100964.00
2022-12-27T07:44:22.677Z,100959.40
2022-12-27T07:46:56.629Z,100962.40
2022-12-27T07:49:30.278Z,100965.00
2022-12-27T07:52:03.856Z,100972.00
2022-12-27T07:54:37.546Z,100977.00
2022-12-27T07:57:11.537Z,100972.60
2022-12-27T07:59:45.978Z,100974.80
2022-12-27T08:02:20.061Z,100974.60
2022-12-27T08:04:53.846Z,100982.00
2022-12-27T08:07:29.186Z,100989.20
2022-12-27T08:10:03.258Z,100985.80
2022-12-27T08:12:37.097Z,100990.80
2022-12-27T08:15:13.729Z,100993.40
2022-12-27T08:17:47.452Z,100993.00
2022-12-27T08:20:21.495Z,100993.00
2022-12-27T08:22:56.120Z,100984.60
2022-12-27T08:25:32.979Z,100993.60
2022-12-27T08:28:14.793Z,100991.80
2022-12-27T08:30:50.071Z,100986.00
2022-12-27T08:33:34.891Z,100986.60
2022-12-27T08:36:52.966Z,100988.20
2022-12-27T08:39:07.349Z,100991.40
2022-12-27T08:41:40.943Z,100988.40
2022-12-27T08:44:21.288Z,100988.60
2022-12-27T08:46:55.090Z,100987.20
2022-12-27T08:49:28.795Z,100993.80
2022-12-27T08:52:03.961Z,101000.00
2022-12-27T08:54:37.734Z,100996.80
2022-12-27T08:58:13.967Z,100991.60
2022-12-27T09:00:56.314Z,100998.80
2022-12-27T09:03:31.627Z,100994.80
2022-12-27T09:06:16.525Z,100994.60
2022-12-27T09:08:52.661Z,100991.00
2022-12-27T09:11:29.275Z,100995.80
2022-12-27T09:14:06.668Z,100992.20
2022-12-27T09:16:41.347Z,100993.60
2022-12-27T09:19:15.089Z,101006.00
2022-12-27T09:21:48.684Z,101004.20
2022-12-27T09:24:22.607Z,101008.00
2022-12-27T09:26:56.320Z,101003.40
2022-12-27T09:29:34.160Z,101002.40
2022-12-27T09:32:10.116Z,101005.00
2022-12-27T09:34:44.064Z,101000.20
2022-12-27T09:37:18.785Z,101002.80
2022-12-27T09:39:52.630Z,100991.40
2022-12-27T09:42:58.981Z,101003.00
2022-12-27T09:45:44.927Z,100997.80
2022-12-27T09:48:33.783Z,101005.60
2022-12-27T09:51:17.976Z,101014.20
2022-12-27T09:54:02.646Z,101012.00
2022-12-27T09:57:02.142Z,101012.80
2022-12-27T09:59:39.407Z,101008.40
2022-12-27T10:02:25.128Z,101014.20
2022-12-27T10:05:19.691Z,101010.40
2022-12-27T10:08:20.361Z,101019.00
2022-12-27T10:11:06.220Z,101023.00
2022-12-27T10:13:55.545Z,101020.00
2022-12-27T10:16:38.754Z,101017.60
2022-12-27T10:19:37.200Z,101023.80
2022-12-27T10:22:33.741Z,101029.80
2022-12-27T10:25:26.409Z,101033.60
2022-12-27T10:28:13.267Z,101027.00
2022-12-27T10:30:51.372Z,101029.80
2022-12-27T10:33:29.720Z,101014.00
2022-12-27T10:36:11.447Z,101011.00
2022-12-27T10:38:45.339Z,101014.40
2022-12-27T10:41:45.076Z,101009.00
2022-12-27T10:44:26.109Z,101007.20
2022-12-27T10:47:06.375Z,100999.80
2022-12-27T10:50:02.729Z,101010.40
2022-12-27T10:52:41.433Z,101006.60
2022-12-27T10:55:39.020Z,101009.80
2022-12-27T10:58:45.463Z,101003.20
2022-12-27T11:01:29.335Z,101001.20
2022-12-27T11:04:21.178Z,100999.60
2022-12-27T11:07:15.072Z,100993.20
2022-12-27T11:09:51.306Z,100991.80
2022-12-27T11:12:28.922Z,100990.20
2022-12-27T11:15:08.411Z,100987.00
2022-12-27T11:17:47.302Z,100985.00
2022-12-27T11:20:31.860Z,100987.40
2022-12-27T11:23:14.593Z,100985.80
2022-12-27T11:25:58.232Z,100991.00
2022-12-27T11:28:38.624Z,100992.60
2022-12-27T11:31:17.030Z,100994.20
2022-12-27T11:33:54.268Z,101001.60
2022-12-27T11:36:35.084Z,101004.20
2022-12-27T11:39:10.055Z,101005.40
2022-12-27T11:41:50.829Z,101005.00
2022-12-27T11:44:31.100Z,101012.80
2022-12-27T11:47:13.732Z,101009.80
2022-12-27T11:49:57.654Z,101011.20
2022-12-27T11:53:10.170Z,101014.80
2022-12-27T11:56:13.302Z,101013.40
2022-12-27T11:59:27.034Z,101005.20
2022-12-27T12:02:32.021Z,101016.80
2022-12-27T12:05:46.235Z,101014.80
2022-12-27T12:08:56.363Z,101012.40
2022-12-27T12:11:53.058Z,101012.40
2022-12-27T12:15:14.725Z,101010.20
2022-12-27T12:18:14.569Z,101010.80
2022-12-27T12:21:27.182Z,101015.00
2022-12-27T12:24:43.344Z,101014.00
2022-12-27T12:27:44.589Z,101012.20
2022-12-27T12:30:46.300Z,101014.20
2022-12-27T12:33:58.926Z,101018.80
2022-12-27T12:36:53.474Z,101020.00
2022-12-27T12:40:07.035Z,101019.00
2022-12-27T12:42:57.271Z,101014.40
2022-12-27T12:46:11.894Z,101023.60
2022-12-27T12:49:25.895Z,101024.80
2022-12-27T12:52:49.955Z,101026.40
2022-12-27T12:55:46.564Z,101021.00
2022-12-27T12:58:53.320Z,101019.40
2022-12-27T13:01:55.464Z,101040.20
2022-12-27T13:04:59.431Z,101045.60
2022-12-27T13:07:52.630Z,101040.80
2022-12-27T13:10:53.081Z,101051.80
2022-12-27T13:13:41.135Z,101051.40
2022-12-27T13:16:32.549Z,101048.00
2022-12-27T13:19:27.453Z,101052.20
2022-12-27T13:22:16.931Z,101052.00
2022-12-27T13:25:19.047Z,101055.00
2022-12-27T13:28:07.769Z,101056.40
2022-12-27T13:30:57.844Z,101063.60
2022-12-27T13:33:47.348Z,101069.80
2022-12-27T13:36:35.995Z,101071.00
2022-12-27T13:39:42.948Z,101067.00
2022-12-27T13:43:01.332Z,101079.80
2022-12-27T13:45:52.975Z,101069.60
2022-12-27T13:49:00.998Z,101073.00
2022-12-27T13:51:53.357Z,101080.80
2022-12-27T13:55:07.472Z,101089.00
2022-12-27T13:58:38.307Z,101091.60
2022-12-27T14:01:48.425Z,101107.40
2022-12-27T14:04:52.319Z,101109.60
2022-12-27T14:08:02.319Z,101114.40
2022-12-27T14:10:46.351Z,101113.60
2022-12-27T14:13:31.312Z,101121.00
2022-12-27T14:16:32.305Z,101114.40
2022-12-27T14:19:45.321Z,101120.00
2022-12-27T14:23:00.322Z,101129.60
2022-12-27T14:26:33.319Z,101134.40
2022-12-27T14:30:17.335Z,101141.60
2022-12-27T14:34:00.316Z,101141.20
2022-12-27T14:37:22.317Z,101146.80
2022-12-27T14:40:40.325Z,101143.80
2022-12-27T14:44:27.983Z,101154.00
2022-12-27T14:47:56.384Z,101162.00
2022-12-27T14:59:24.257Z,101166.00
2022-12-27T15:02:26.985Z,101168.00
2022-12-27T15:05:35.851Z,101173.00
2022-12-27T15:08:42.936Z,101173.20
2022-12-27T15:11:58.510Z,101168.40
2022-12-27T15:15:10.652Z,101169.80
2022-12-27T15:18:13.187Z,101170.80
2022-12-27T15:21:24.381Z,101173.40
2022-12-27T15:24:07.223Z,101172.20
2022-12-27T15:26:54.066Z,101167.00
2022-12-27T15:29:51.705Z,101167.60
2022-12-27T15:32:38.755Z,101173.20
2022-12-27T15:36:07.823Z,101180.80
2022-12-27T15:38:55.353Z,101185.80
2022-12-27T15:42:05.481Z,101179.80
2022-12-27T15:45:00.500Z,101179.20
2022-12-27T15:47:57.013Z,101181.20
2022-12-27T15:50:54.499Z,101179.60
2022-12-27T15:53:50.754Z,101174.60
2022-12-27T15:56:49.601Z,101164.40
2022-12-27T15:59:51.790Z,101161.80
2022-12-27T16:02:38.735Z,101165.80
2022-12-27T16:05:52.392Z,101162.80
2022-12-27T16:08:40.304Z,101168.60
2022-12-27T16:11:17.033Z,101168.00
2022-12-27T16:14:13.737Z,101170.20
2022-12-27T16:17:02.614Z,101176.40
2022-12-27T16:19:56.117Z,101174.80
2022-12-27T16:22:39.822Z,101178.00
2022-12-27T16:25:35.782Z,101180.60
2022-12-27T16:28:24.054Z,101186.60
2022-12-27T16:31:01.100Z,101181.80
2022-12-27T16:33:43.384Z,101179.60
2022-12-27T16:36:38.195Z,101177.40
2022-12-27T16:39:50.387Z,101184.20
2022-12-27T16:42:42.749Z,101179.00
2022-12-27T16:45:49.677Z,101180.60
2022-12-27T16:48:40.521Z,101187.00
2022-12-27T16:51:33.133Z,101187.40
2022-12-27T16:54:28.074Z,101190.60
2022-12-27T16:57:41.637Z,101194.80
2022-12-27T17:00:43.169Z,101196.60
2022-12-27T17:03:56.322Z,101202.40
2022-12-27T17:06:58.746Z,101204.40
2022-12-27T17:09:47.195Z,101202.20
2022-12-27T17:12:29.538Z,101198.60
2022-12-27T17:15:10.960Z,101194.60
2022-12-27T17:17:53.075Z,101200.80
2022-12-27T17:20:31.000Z,101202.20
2022-12-27T17:23:09.043Z,101216.40
2022-12-27T17:25:54.722Z,101216.60
2022-12-27T17:28:40.432Z,101218.80
2022-12-27T17:31:26.746Z,101214.80
2022-12-27T17:34:18.759Z,101212.60
2022-12-27T17:37:09.135Z,101222.00
2022-12-27T17:40:09.407Z,101223.60
2022-12-27T17:43:18.429Z,101223.80
2022-12-27T17:46:02.754Z,101222.80
2022-12-27T17:48:38.411Z,101231.80
2022-12-27T17:51:20.337Z,101235.60
2022-12-27T17:54:14.088Z,101236.80
2022-12-27T17:57:15.018Z,101239.40
2022-12-27T17:59:52.120Z,101244.00
2022-12-27T18:02:34.267Z,101241.80
2022-12-27T18:05:16.241Z,101236.20
2022-12-27T18:07:50.784Z,101233.60
2022-12-27T18:10:30.424Z,101236.60
2022-12-27T18:13:08.621Z,101239.20
2022-12-27T18:15:49.628Z,101238.40
2022-12-27T18:18:28.392Z,101237.00
2022-12-27T18:21:07.163Z,101238.20
2022-12-27T18:23:49.280Z,101247.60
2022-12-27T18:26:34.866Z,101255.60
2022-12-27T18:29:13.663Z,101251.80
2022-12-27T18:31:54.983Z,101251.20
2022-12-27T18:34:37.149Z,101255.80
2022-12-27T18:37:15.974Z,101260.20
2022-12-27T18:39:56.704Z,101263.40
2022-12-27T18:42:39.981Z,101261.80
2022-12-27T18:45:27.232Z,101263.40
2022-12-27T18:48:12.112Z,101258.00
2022-12-27T18:50:55.103Z,101264.20
2022-12-27T18:53:36.164Z,101262.80
2022-12-27T18:56:32.611Z,101260.40
2022-12-27T18:59:26.292Z,101266.20
2022-12-27T19:02:02.897Z,101271.40
2022-12-27T19:04:37.900Z,101274.20
2022-12-27T19:07:15.821Z,101284.00
2022-12-27T19:10:01.972Z,101284.60
2022-12-27T19:12:42.894Z,101279.60
2022-12-27T19:15:25.168Z,101282.00
2022-12-27T19:18:03.634Z,101280.60
2022-12-27T19:20:41.368Z,101278.40
2022-12-27T19:23:33.387Z,101279.20
2022-12-27T19:26:26.985Z,101285.40
2022-12-27T19:29:14.753Z,101288.40
2022-12-27T19:31:56.807Z,101289.00
2022-12-27T19:34:42.419Z,101290.60
2022-12-27T19:37:17.139Z,101290.80
2022-12-27T19:39:52.873Z,101286.80
2022-12-27T19:42:35.123Z,101290.40
2022-12-27T19:45:14.735Z,101293.60
2022-12-27T19:47:58.187Z,101288.60
2022-12-27T19:50:33.039Z,101290.20
2022-12-27T19:53:12.051Z,101290.20
2022-12-27T19:55:48.143Z,101291.40
2022-12-27T19:58:27.886Z,101290.60
2022-12-27T20:01:04.278Z,101281.60
2022-12-27T20:03:39.239Z,101286.80
2022-12-27T20:06:24.132Z,101287.20
2022-12-27T20:09:06.870Z,101289.20
2022-12-27T20:11:45.346Z,101293.40
2022-12-27T20:14:21.561Z,101296.40
2022-12-27T20:16:59.741Z,101296.40
2022-12-27T20:19:39.064Z,101297.20
2022-12-27T20:22:15.021Z,101293.60
2022-12-27T20:24:52.726Z,101298.40
2022-12-27T20:27:27.648Z,101298.20
2022-12-27T20:30:02.471Z,101301.80
2022-12-27T20:32:38.260Z,101299.20
2022-12-27T20:35:14.493Z,101308.60
2022-12-27T20:37:52.044Z,101309.00
2022-12-27T20:40:27.595Z,101306.80
2022-12-27T20:43:02.515Z,101296.20
2022-12-27T20:45:37.698Z,101295.80
2022-12-27T20:48:13.987Z,101300.00
2022-12-27T20:50:49.670Z,101309.40
2022-12-27T20:53:28.528Z,101310.80
2022-12-27T20:56:05.801Z,101310.40
2022-12-27T20:58:41.683Z,101304.80
2022-12-27T21:01:20.266Z,101309.20
2022-12-27T21:03:57.269Z,101301.60
2022-12-27T21:06:35.291Z,101300.80
2022-12-27T21:09:10.944Z,101303.60
2022-12-27T21:11:46.196Z,101298.20
2022-12-27T21:14:21.054Z,101295.60
2022-12-27T21:16:57.536Z,101299.40
2022-12-27T21:19:32.775Z,101300.00
2022-12-27T21:22:07.824Z,101299.80
2022-12-27T21:24:43.387Z,101300.60
2022-12-27T21:27:17.774Z,101299.80
2022-12-27T21:29:52.451Z,101286.80
2022-12-27T21:32:27.316Z,101292.80
2022-12-27T21:35:02.537Z,101295.60
2022-12-27T21:37:37.657Z,101298.80
2022-12-27T21:40:14.982Z,101294.80
2022-12-27T21:42:50.535Z,101299.40
2022-12-27T21:45:26.478Z,101300.80
2022-12-27T21:48:02.917Z,101303.00
2022-12-27T21:50:37.610Z,101308.40
2022-12-27T21:53:12.641Z,101304.60
2022-12-27T21:55:47.954Z,101300.00
2022-12-27T21:58:22.678Z,101305.40
2022-12-27T22:01:08.108Z,101304.00
2022-12-27T22:03:45.863Z,101306.40
2022-12-27T22:06:23.609Z,101314.60
2022-12-27T22:09:01.441Z,101320.40
2022-12-27T22:11:38.444Z,101315.60
2022-12-27T22:14:12.572Z,101314.20
2022-12-27T22:16:46.840Z,101318.40
2022-12-27T22:19:21.076Z,101315.20
2022-12-27T22:21:54.904Z,101315.80
2022-12-27T22:24:30.543Z,101314.80
2022-12-27T22:27:04.851Z,101316.40
2022-12-27T22:29:42.031Z,101314.00
2022-12-27T22:32:16.175Z,101317.80
2022-12-27T22:34:50.294Z,101314.80
2022-12-27T22:37:24.578Z,101314.40
2022-12-27T22:39:59.525Z,101315.20
2022-12-27T22:42:35.015Z,101310.60
2022-12-27T22:45:12.301Z,101305.00
2022-12-27T22:47:47.565Z,101308.80
2022-12-27T22:50:22.778Z,101306.40
2022-12-27T22:52:56.565Z,101303.60
2022-12-27T22:55:30.611Z,101303.40
2022-12-27T22:58:04.489Z,101299.00
2022-12-27T23:00:40.585Z,101294.00
2022-12-27T23:03:16.070Z,101292.00
2022-12-27T23:06:01.026Z,101288.00
2022-12-27T23:08:37.096Z,101281.80
2022-12-27T23:11:16.439Z,101280.00
2022-12-27T23:13:58.533Z,101284.80
2022-12-27T23:16:38.631Z,101282.40
2022-12-27T23:19:13.751Z,101277.20
2022-12-27T23:21:48.349Z,101273.40
2022-12-27T23:24:22.883Z,101272.00
2022-12-27T23:26:57.292Z,101268.20
2022-12-27T23:29:30.987Z,101276.00
2022-12-27T23:32:04.928Z,101262.80
2022-12-27T23:34:38.789Z,101268.80
2022-12-27T23:37:12.969Z,101264.80
2022-12-27T23:39:47.076Z,101270.00
2022-12-27T23:42:21.602Z,101270.60
2022-12-27T23:44:55.543Z,101268.60
2022-12-27T23:47:30.140Z,101267.80
2022-12-27T23:50:04.119Z,101265.60
2022-12-27T23:52:38.267Z,101264.80
2022-12-27T23:55:13.925Z,101262.20
2022-12-27T23:57:48.120Z,101269.00
